createdAt,value
2018-11-11T00:00:11.235Z,10.76
2018-11-11T00:01:15.774Z,10.78
2018-11-11T00:02:20.442Z,10.79
2018-11-11T00:03:25.261Z,10.80
2018-11-11T00:04:29.758Z,10.80
2018-11-11T00:05:34.297Z,10.81
2018-11-11T00:06:38.748Z,10.81
2018-11-11T00:07:43.853Z,10.79
2018-11-11T00:08:48.386Z,10.79
2018-11-11T00:09:53.508Z,10.78
2018-11-11T00:10:58.456Z,10.79
2018-11-11T00:12:03.004Z,10.80
2018-11-11T00:13:07.492Z,10.80
2018-11-11T00:14:12.373Z,10.80
2018-11-11T00:15:18.438Z,10.80
2018-11-11T00:16:23.224Z,10.78
2018-11-11T00:17:28.595Z,10.78
2018-11-11T00:18:33.102Z,10.77
2018-11-11T00:19:39.128Z,10.77
2018-11-11T00:20:43.683Z,10.77
2018-11-11T00:21:48.292Z,10.76
2018-11-11T00:22:53.368Z,10.78
2018-11-11T00:24:00.269Z,10.79
2018-11-11T00:25:04.741Z,10.79
2018-11-11T00:26:10.551Z,10.79
2018-11-11T00:27:15.321Z,10.77
2018-11-11T00:28:19.811Z,10.76
2018-11-11T00:29:24.604Z,10.76
2018-11-11T00:30:29.136Z,10.75
2018-11-11T00:31:34.369Z,10.74
2018-11-11T00:32:38.934Z,10.75
2018-11-11T00:33:43.647Z,10.76
2018-11-11T00:34:49.350Z,10.76
2018-11-11T00:35:54.184Z,10.79
2018-11-11T00:36:58.682Z,10.82
2018-11-11T00:38:03.131Z,10.84
2018-11-11T00:39:08.629Z,10.86
2018-11-11T00:40:14.496Z,10.87
2018-11-11T00:41:18.985Z,10.86
2018-11-11T00:42:23.804Z,10.84
2018-11-11T00:43:28.736Z,10.84
2018-11-11T00:44:33.156Z,10.85
2018-11-11T00:45:37.737Z,10.86
2018-11-11T00:46:42.607Z,10.84
2018-11-11T00:47:47.315Z,10.83
2018-11-11T00:48:52.572Z,10.84
2018-11-11T00:49:57.982Z,10.84
2018-11-11T00:51:03.126Z,10.83
2018-11-11T00:52:07.862Z,10.82
2018-11-11T00:53:12.480Z,10.81
2018-11-11T00:54:17.663Z,10.80
2018-11-11T00:55:22.388Z,10.78
2018-11-11T00:56:26.866Z,10.79
2018-11-11T00:57:31.444Z,10.78
2018-11-11T00:58:35.942Z,10.79
2018-11-11T00:59:40.684Z,10.79
2018-11-11T01:00:45.131Z,10.81
2018-11-11T01:01:49.897Z,10.81
2018-11-11T01:02:54.503Z,10.80
2018-11-11T01:04:01.118Z,10.79
2018-11-11T01:05:06.852Z,10.79
2018-11-11T01:06:13.495Z,10.79
2018-11-11T01:07:18.655Z,10.81
2018-11-11T01:08:24.273Z,10.84
2018-11-11T01:09:28.762Z,10.87
2018-11-11T01:10:33.236Z,10.86
2018-11-11T01:11:38.395Z,10.88
2018-11-11T01:12:43.740Z,10.88
2018-11-11T01:13:49.080Z,10.86
2018-11-11T01:14:54.101Z,10.86
2018-11-11T01:15:58.551Z,10.89
2018-11-11T01:17:03.222Z,10.88
2018-11-11T01:18:10.182Z,10.88
2018-11-11T01:19:14.959Z,10.88
2018-11-11T01:20:20.491Z,10.87
2018-11-11T01:21:25.679Z,10.90
2018-11-11T01:22:30.508Z,10.91
2018-11-11T01:23:35.999Z,10.87
2018-11-11T01:24:40.511Z,10.88
2018-11-11T01:25:45.040Z,10.88
2018-11-11T01:26:49.534Z,10.87
2018-11-11T01:27:54.419Z,10.84
2018-11-11T01:28:59.164Z,10.83
2018-11-11T01:30:07.841Z,10.88
2018-11-11T01:31:12.836Z,10.88
2018-11-11T01:32:17.998Z,10.86
2018-11-11T01:33:22.629Z,10.86
2018-11-11T01:34:27.824Z,10.85
2018-11-11T01:35:33.320Z,10.90
2018-11-11T01:36:37.858Z,10.88
2018-11-11T01:37:43.265Z,10.88
2018-11-11T01:38:47.928Z,10.90
2018-11-11T01:39:52.571Z,10.91
2018-11-11T01:40:57.388Z,10.90
2018-11-11T01:42:01.853Z,10.87
2018-11-11T01:43:06.667Z,10.85
2018-11-11T01:44:11.820Z,10.87
2018-11-11T01:45:18.331Z,10.87
2018-11-11T01:46:23.273Z,10.86
2018-11-11T01:47:28.098Z,10.86
2018-11-11T01:48:32.568Z,10.91
2018-11-11T01:49:37.821Z,10.94
2018-11-11T01:50:42.301Z,10.94
2018-11-11T01:51:48.305Z,10.91
2018-11-11T01:52:53.907Z,10.92
2018-11-11T01:53:58.362Z,10.90
2018-11-11T01:55:08.567Z,10.90
2018-11-11T01:56:14.761Z,10.84
2018-11-11T01:57:19.304Z,10.79
2018-11-11T01:58:23.785Z,10.87
2018-11-11T01:59:28.554Z,10.89
2018-11-11T02:00:34.126Z,10.91
2018-11-11T02:01:38.636Z,10.90
2018-11-11T02:02:44.150Z,10.88
2018-11-11T02:03:49.223Z,10.85
2018-11-11T02:04:54.139Z,10.86
2018-11-11T02:05:58.665Z,10.83
2018-11-11T02:07:03.176Z,10.84
2018-11-11T02:08:07.751Z,10.82
2018-11-11T02:09:13.204Z,10.80
2018-11-11T02:10:18.785Z,10.78
2018-11-11T02:11:23.240Z,10.76
2018-11-11T02:12:28.177Z,10.77
2018-11-11T02:13:32.889Z,10.74
2018-11-11T02:14:39.026Z,10.72
2018-11-11T02:15:43.518Z,10.71
2018-11-11T02:16:48.255Z,10.70
2018-11-11T02:17:52.723Z,10.69
2018-11-11T02:19:08.445Z,10.67
2018-11-11T02:20:16.635Z,10.64
2018-11-11T02:21:21.508Z,10.62
2018-11-11T02:22:26.168Z,10.62
2018-11-11T02:23:30.642Z,10.62
2018-11-11T02:24:35.095Z,10.63
2018-11-11T02:25:40.005Z,10.61
2018-11-11T02:26:44.416Z,10.59
2018-11-11T02:27:49.114Z,10.55
2018-11-11T02:28:54.016Z,10.56
2018-11-11T02:29:58.600Z,10.56
2018-11-11T02:31:03.271Z,10.53
2018-11-11T02:32:08.536Z,10.51
2018-11-11T02:33:13.027Z,10.51
2018-11-11T02:34:17.768Z,10.51
2018-11-11T02:35:22.311Z,10.51
2018-11-11T02:36:27.007Z,10.50
2018-11-11T02:37:31.764Z,10.46
2018-11-11T02:38:36.576Z,10.44
2018-11-11T02:39:42.347Z,10.41
2018-11-11T02:40:48.091Z,10.40
2018-11-11T02:41:52.660Z,10.39
2018-11-11T02:42:57.144Z,10.35
2018-11-11T02:44:01.897Z,10.36
2018-11-11T02:45:07.663Z,10.39
2018-11-11T02:46:13.236Z,10.40
2018-11-11T02:47:40.226Z,10.40
2018-11-11T02:48:44.886Z,10.41
2018-11-11T02:49:52.361Z,10.40
2018-11-11T02:50:56.939Z,10.39
2018-11-11T02:52:01.737Z,10.40
2018-11-11T02:53:06.276Z,10.38
2018-11-11T02:54:10.906Z,10.36
2018-11-11T02:55:16.556Z,10.37
2018-11-11T02:56:21.192Z,10.36
2018-11-11T02:57:25.747Z,10.34
2018-11-11T02:58:30.573Z,10.34
2018-11-11T02:59:35.197Z,10.33
2018-11-11T03:00:39.781Z,10.35
2018-11-11T03:01:44.315Z,10.37
2018-11-11T03:02:49.130Z,10.37
2018-11-11T03:03:53.749Z,10.37
2018-11-11T03:04:58.534Z,10.35
2018-11-11T03:06:04.401Z,10.37
2018-11-11T03:07:09.592Z,10.35
2018-11-11T03:08:14.640Z,10.34
2018-11-11T03:09:19.349Z,10.32
2018-11-11T03:10:23.890Z,10.35
2018-11-11T03:11:28.999Z,10.33
2018-11-11T03:12:34.358Z,10.31
2018-11-11T03:13:39.739Z,10.32
2018-11-11T03:14:44.261Z,10.32
2018-11-11T03:15:48.960Z,10.32
2018-11-11T03:16:53.428Z,10.31
2018-11-11T03:17:58.240Z,10.31
2018-11-11T03:19:02.741Z,10.32
2018-11-11T03:20:07.591Z,10.32
2018-11-11T03:21:12.085Z,10.34
2018-11-11T03:22:16.806Z,10.33
2018-11-11T03:23:21.297Z,10.33
2018-11-11T03:24:26.204Z,10.32
2018-11-11T03:25:30.724Z,10.31
2018-11-11T03:26:35.387Z,10.33
2018-11-11T03:27:40.505Z,10.34
2018-11-11T03:28:45.313Z,10.34
2018-11-11T03:29:49.801Z,10.34
2018-11-11T03:30:54.601Z,10.35
2018-11-11T03:31:59.068Z,10.35
2018-11-11T03:33:03.514Z,10.34
2018-11-11T03:34:07.949Z,10.33
2018-11-11T03:35:13.465Z,10.33
2018-11-11T03:36:18.349Z,10.30
2018-11-11T03:37:23.130Z,10.28
2018-11-11T03:38:27.691Z,10.28
2018-11-11T03:39:32.173Z,10.28
2018-11-11T03:40:38.090Z,10.29
2018-11-11T03:41:42.576Z,10.28
2018-11-11T03:42:47.423Z,10.27
2018-11-11T03:43:52.215Z,10.28
2018-11-11T03:44:56.713Z,10.29
2018-11-11T03:46:01.196Z,10.28
2018-11-11T03:47:05.666Z,10.28
2018-11-11T03:48:10.169Z,10.25
2018-11-11T03:49:14.714Z,10.27
2018-11-11T03:50:19.639Z,10.28
2018-11-11T03:51:24.200Z,10.29
2018-11-11T03:52:28.670Z,10.32
2018-11-11T03:53:33.394Z,10.32
2018-11-11T03:54:38.022Z,10.35
2018-11-11T03:55:44.249Z,10.37
2018-11-11T03:56:49.030Z,10.35
2018-11-11T03:57:54.404Z,10.36
2018-11-11T03:59:00.947Z,10.37
2018-11-11T04:00:05.714Z,10.38
2018-11-11T04:01:10.177Z,10.38
2018-11-11T04:02:14.664Z,10.37
2018-11-11T04:03:19.482Z,10.38
2018-11-11T04:04:25.166Z,10.39
2018-11-11T04:05:30.826Z,10.38
2018-11-11T04:06:35.357Z,10.37
2018-11-11T04:07:40.213Z,10.38
2018-11-11T04:08:45.347Z,10.39
2018-11-11T04:09:50.126Z,10.40
2018-11-11T04:10:54.589Z,10.37
2018-11-11T04:11:59.059Z,10.37
2018-11-11T04:13:03.592Z,10.38
2018-11-11T04:14:08.356Z,10.37
2018-11-11T04:15:14.105Z,10.38
2018-11-11T04:16:20.653Z,10.39
2018-11-11T04:17:25.150Z,10.39
2018-11-11T04:18:29.690Z,10.38
2018-11-11T04:19:34.128Z,10.39
2018-11-11T04:20:39.052Z,10.41
2018-11-11T04:21:43.608Z,10.40
2018-11-11T04:22:48.377Z,10.40
2018-11-11T04:23:52.820Z,10.38
2018-11-11T04:24:57.700Z,10.38
2018-11-11T04:26:02.156Z,10.38
2018-11-11T04:27:07.489Z,10.37
2018-11-11T04:28:12.318Z,10.39
2018-11-11T04:29:17.397Z,10.40
2018-11-11T04:30:21.973Z,10.42
2018-11-11T04:31:26.449Z,10.42
2018-11-11T04:32:30.905Z,10.39
2018-11-11T04:33:35.376Z,10.37
2018-11-11T04:34:40.538Z,10.36
2018-11-11T04:35:49.546Z,10.39
2018-11-11T04:36:53.999Z,10.36
2018-11-11T04:37:58.440Z,10.36
2018-11-11T04:39:03.067Z,10.34
2018-11-11T04:40:08.387Z,10.35
2018-11-11T04:41:13.169Z,10.35
2018-11-11T04:42:18.389Z,10.38
2018-11-11T04:43:22.898Z,10.42
2018-11-11T04:44:27.380Z,10.41
2018-11-11T04:45:31.811Z,10.42
2018-11-11T04:46:36.869Z,10.41
2018-11-11T04:47:41.764Z,10.42
2018-11-11T04:48:47.259Z,10.41
2018-11-11T04:49:51.771Z,10.40
2018-11-11T04:50:56.228Z,10.38
2018-11-11T04:52:00.669Z,10.37
2018-11-11T04:53:05.573Z,10.38
2018-11-11T04:54:10.905Z,10.40
2018-11-11T04:55:15.509Z,10.40
2018-11-11T04:56:19.996Z,10.40
2018-11-11T04:57:24.428Z,10.42
2018-11-11T04:58:29.710Z,10.43
2018-11-11T04:59:34.153Z,10.43
2018-11-11T05:00:38.915Z,10.42
2018-11-11T05:01:43.463Z,10.41
2018-11-11T05:02:47.938Z,10.41
2018-11-11T05:03:52.456Z,10.41
2018-11-11T05:04:57.407Z,10.41
2018-11-11T05:06:02.757Z,10.42
2018-11-11T05:07:07.769Z,10.43
2018-11-11T05:08:12.313Z,10.42
2018-11-11T05:09:18.376Z,10.43
2018-11-11T05:10:22.956Z,10.43
2018-11-11T05:11:27.595Z,10.43
2018-11-11T05:12:32.313Z,10.45
2018-11-11T05:13:41.435Z,10.45
2018-11-11T05:14:45.983Z,10.47
2018-11-11T05:15:50.473Z,10.45
2018-11-11T05:16:54.958Z,10.46
2018-11-11T05:17:59.525Z,10.45
2018-11-11T05:19:03.996Z,10.45
2018-11-11T05:20:09.424Z,10.48
2018-11-11T05:21:13.885Z,10.49
2018-11-11T05:22:18.360Z,10.49
2018-11-11T05:23:24.489Z,10.50
2018-11-11T05:24:28.945Z,10.49
2018-11-11T05:25:33.389Z,10.47
2018-11-11T05:26:38.149Z,10.48
2018-11-11T05:27:42.899Z,10.47
2018-11-11T05:28:47.356Z,10.48
2018-11-11T05:29:51.908Z,10.47
2018-11-11T05:30:56.439Z,10.50
2018-11-11T05:32:00.993Z,10.49
2018-11-11T05:33:05.936Z,10.49
2018-11-11T05:34:10.843Z,10.50
2018-11-11T05:35:15.311Z,10.49
2018-11-11T05:36:20.452Z,10.49
2018-11-11T05:37:24.979Z,10.50
2018-11-11T05:38:29.820Z,10.50
2018-11-11T05:39:34.637Z,10.50
2018-11-11T05:40:39.190Z,10.49
2018-11-11T05:41:43.683Z,10.48
2018-11-11T05:42:50.656Z,10.48
2018-11-11T05:43:55.175Z,10.49
2018-11-11T05:44:59.629Z,10.49
2018-11-11T05:46:04.429Z,10.50
2018-11-11T05:47:09.187Z,10.53
2018-11-11T05:48:16.754Z,10.53
2018-11-11T05:49:21.326Z,10.53
2018-11-11T05:50:25.759Z,10.52
2018-11-11T05:51:30.276Z,10.52
2018-11-11T05:52:35.038Z,10.53
2018-11-11T05:53:39.500Z,10.53
2018-11-11T05:54:44.021Z,10.48
2018-11-11T05:55:48.505Z,10.42
2018-11-11T05:56:52.952Z,10.40
2018-11-11T05:57:57.461Z,10.41
2018-11-11T05:59:02.480Z,10.41
2018-11-11T06:00:07.938Z,10.46
2018-11-11T06:01:12.464Z,10.43
2018-11-11T06:02:16.924Z,10.39
2018-11-11T06:03:21.475Z,10.41
2018-11-11T06:04:25.938Z,10.42
2018-11-11T06:05:31.714Z,10.46
2018-11-11T06:06:36.155Z,10.48
2018-11-11T06:07:41.223Z,10.51
2018-11-11T06:08:45.782Z,10.51
2018-11-11T06:09:50.266Z,10.51
2018-11-11T06:10:54.688Z,10.50
2018-11-11T06:11:59.450Z,10.53
2018-11-11T06:13:03.938Z,10.52
2018-11-11T06:14:11.533Z,10.53
2018-11-11T06:15:16.092Z,10.51
2018-11-11T06:16:20.568Z,10.51
2018-11-11T06:17:25.476Z,10.50
2018-11-11T06:18:30.251Z,10.54
2018-11-11T06:19:34.708Z,10.52
2018-11-11T06:20:39.155Z,10.51
2018-11-11T06:21:43.711Z,10.55
2018-11-11T06:22:48.150Z,10.54
2018-11-11T06:23:52.648Z,10.55
2018-11-11T06:24:57.693Z,10.57
2018-11-11T06:26:02.325Z,10.56
2018-11-11T06:27:06.911Z,10.55
2018-11-11T06:28:11.405Z,10.56
2018-11-11T06:29:15.905Z,10.57
2018-11-11T06:30:20.434Z,10.57
2018-11-11T06:31:25.877Z,10.57
2018-11-11T06:46:07.082Z,10.63
2018-11-11T06:47:11.769Z,10.64
2018-11-11T06:48:17.292Z,10.63
2018-11-11T06:49:21.830Z,10.65
2018-11-11T06:50:27.106Z,10.66
2018-11-11T06:51:31.896Z,10.65
2018-11-11T06:52:36.382Z,10.67
2018-11-11T06:53:40.819Z,10.69
2018-11-11T06:54:45.719Z,10.68
2018-11-11T06:55:50.159Z,10.70
2018-11-11T06:56:54.767Z,10.75
2018-11-11T06:58:00.610Z,10.76
2018-11-11T06:59:05.184Z,10.73
2018-11-11T07:00:10.891Z,10.71
2018-11-11T07:01:16.183Z,10.71
2018-11-11T07:02:22.396Z,10.71
2018-11-11T07:03:32.277Z,10.72
2018-11-11T07:04:36.759Z,10.71
2018-11-11T07:05:41.232Z,10.73
2018-11-11T07:06:45.670Z,10.77
2018-11-11T07:07:50.146Z,10.78
2018-11-11T07:08:54.709Z,10.77
2018-11-11T07:10:00.093Z,10.74
2018-11-11T07:11:05.332Z,10.73
2018-11-11T07:12:09.774Z,10.73
2018-11-11T07:13:14.218Z,10.73
2018-11-11T07:14:25.300Z,10.72
2018-11-11T07:15:30.060Z,10.76
2018-11-11T07:16:34.836Z,10.76
2018-11-11T07:17:39.347Z,10.77
2018-11-11T07:18:44.520Z,10.77
2018-11-11T07:19:52.141Z,10.74
2018-11-11T07:20:56.619Z,10.76
2018-11-11T07:22:01.438Z,10.76
2018-11-11T07:23:06.303Z,10.72
2018-11-11T07:24:12.362Z,10.73
2018-11-11T07:25:17.063Z,10.72
2018-11-11T07:26:22.434Z,10.74
2018-11-11T07:27:26.944Z,10.77
2018-11-11T07:28:34.657Z,10.77
2018-11-11T07:29:41.881Z,10.77
2018-11-11T07:30:46.384Z,10.76
2018-11-11T07:31:50.816Z,10.76
2018-11-11T07:32:55.670Z,10.74
2018-11-11T07:34:00.525Z,10.73
2018-11-11T07:35:08.476Z,10.74
2018-11-11T07:36:15.725Z,10.75
2018-11-11T07:37:21.118Z,10.76
2018-11-11T07:38:26.204Z,10.76
2018-11-11T07:39:31.344Z,10.76
2018-11-11T07:40:36.346Z,10.80
2018-11-11T07:41:42.729Z,10.81
2018-11-11T07:42:49.260Z,10.80
2018-11-11T07:43:53.710Z,10.81
2018-11-11T07:44:58.829Z,10.81
2018-11-11T07:46:03.499Z,10.80
2018-11-11T07:47:08.078Z,10.84
2018-11-11T07:48:13.022Z,10.85
2018-11-11T07:49:18.311Z,10.83
2018-11-11T07:50:23.291Z,10.84
2018-11-11T07:51:31.098Z,10.83
2018-11-11T07:52:36.152Z,10.82
2018-11-11T07:53:43.172Z,10.85
2018-11-11T07:54:49.782Z,10.86
2018-11-11T07:55:56.098Z,10.86
2018-11-11T07:57:01.074Z,10.84
2018-11-11T07:58:05.637Z,10.84
2018-11-11T07:59:10.445Z,10.86
2018-11-11T08:00:19.068Z,10.85
2018-11-11T08:01:26.674Z,10.82
2018-11-11T08:02:31.169Z,10.82
2018-11-11T08:03:37.411Z,10.84
2018-11-11T08:04:41.903Z,10.84
2018-11-11T08:05:46.523Z,10.84
2018-11-11T08:06:51.079Z,10.84
2018-11-11T08:07:55.877Z,10.83
2018-11-11T08:09:01.037Z,10.84
2018-11-11T08:10:07.677Z,10.83
2018-11-11T08:11:18.012Z,10.85
2018-11-11T08:12:22.617Z,10.87
2018-11-11T08:13:30.486Z,10.88
2018-11-11T08:14:37.010Z,10.86
2018-11-11T08:15:42.591Z,10.88
2018-11-11T08:16:50.373Z,10.88
2018-11-11T08:17:57.402Z,10.87
2018-11-11T08:19:02.555Z,10.85
2018-11-11T08:20:07.273Z,10.85
2018-11-11T08:21:12.308Z,10.84
2018-11-11T08:22:17.198Z,10.83
2018-11-11T08:23:21.656Z,10.83
2018-11-11T08:24:26.980Z,10.83
2018-11-11T08:25:31.465Z,10.84
2018-11-11T08:26:37.124Z,10.84
2018-11-11T08:27:42.849Z,10.84
2018-11-11T08:28:47.412Z,10.81
2018-11-11T08:29:53.064Z,10.82
2018-11-11T08:30:58.492Z,10.82
2018-11-11T08:32:03.465Z,10.83
2018-11-11T08:33:08.685Z,10.83
2018-11-11T08:34:13.679Z,10.82
2018-11-11T08:35:18.647Z,10.84
2018-11-11T08:36:23.397Z,10.84
2018-11-11T08:37:29.343Z,10.84
2018-11-11T08:38:34.548Z,10.86
2018-11-11T08:39:39.009Z,10.85
2018-11-11T08:40:43.955Z,10.86
2018-11-11T08:41:48.576Z,10.88
2018-11-11T08:42:53.839Z,10.88
2018-11-11T08:44:00.389Z,10.87
2018-11-11T08:45:06.373Z,10.90
2018-11-11T08:46:11.242Z,10.88
2018-11-11T08:47:16.852Z,10.87
2018-11-11T08:48:26.600Z,10.88
2018-11-11T08:49:31.823Z,10.89
2018-11-11T08:50:37.356Z,10.88
2018-11-11T08:51:42.118Z,10.91
2018-11-11T08:52:48.128Z,10.92
2018-11-11T08:53:54.380Z,10.92
2018-11-11T08:54:59.402Z,10.92
2018-11-11T08:56:05.392Z,10.92
2018-11-11T08:57:11.339Z,10.95
2018-11-11T09:36:00.753Z,14.07
2018-11-11T09:37:06.132Z,14.18
2018-11-11T09:38:15.763Z,14.46
2018-11-11T09:39:21.234Z,14.91
2018-11-11T09:40:25.731Z,15.29
2018-11-11T09:41:31.720Z,15.64
2018-11-11T09:42:36.967Z,15.84
2018-11-11T09:43:50.499Z,16.03
2018-11-11T09:44:55.531Z,14.92
2018-11-11T09:45:59.961Z,13.76
2018-11-11T09:47:04.888Z,14.24
2018-11-11T09:48:11.918Z,15.00
2018-11-11T09:49:16.530Z,13.98
2018-11-11T09:50:23.095Z,13.57
2018-11-11T09:51:35.156Z,13.12
2018-11-11T09:52:41.106Z,12.79
2018-11-11T09:53:46.990Z,12.68
2018-11-11T09:54:51.406Z,12.50
2018-11-11T09:55:57.630Z,12.40
2018-11-11T09:57:04.337Z,12.22
2018-11-11T09:58:08.790Z,12.07
2018-11-11T09:59:13.440Z,12.11
2018-11-11T10:00:22.161Z,12.15
2018-11-11T10:01:29.071Z,12.15
2018-11-11T10:02:36.862Z,12.36
2018-11-11T10:03:52.058Z,12.42
2018-11-11T10:05:03.508Z,12.47
2018-11-11T10:06:17.642Z,12.55
2018-11-11T10:07:32.032Z,12.53
2018-11-11T10:08:43.331Z,12.69
2018-11-11T10:09:56.200Z,13.03
2018-11-11T10:11:16.836Z,13.17
2018-11-11T10:12:27.355Z,13.20
2018-11-11T10:13:38.745Z,13.17
2018-11-11T10:14:48.313Z,12.83
2018-11-11T10:16:04.598Z,12.94
2018-11-11T10:17:18.577Z,12.84
2018-11-11T10:18:27.646Z,12.62
2018-11-11T10:19:40.012Z,12.52
2018-11-11T10:20:47.764Z,12.44
2018-11-11T10:22:09.868Z,12.34
2018-11-11T10:23:24.292Z,12.21
2018-11-11T10:24:35.116Z,12.16
2018-11-11T10:25:45.402Z,12.14
2018-11-11T10:29:05.527Z,12.09
2018-11-11T10:32:17.448Z,12.05
2018-11-11T10:33:28.562Z,12.09
2018-11-11T10:34:45.014Z,12.08
2018-11-11T10:35:55.826Z,12.07
2018-11-11T10:37:16.425Z,12.04
2018-11-11T10:38:42.706Z,12.08
2018-11-11T10:39:57.066Z,12.04
2018-11-11T10:41:06.991Z,12.01
2018-11-11T10:43:36.243Z,12.01
2018-11-11T10:44:52.100Z,11.96
2018-11-11T10:46:06.250Z,11.93
2018-11-11T10:47:17.753Z,11.96
2018-11-11T10:48:29.156Z,11.98
2018-11-11T10:49:37.778Z,11.96
2018-11-11T10:50:52.797Z,11.92
2018-11-11T10:51:58.787Z,11.94
2018-11-11T10:53:08.695Z,11.96
2018-11-11T10:54:15.907Z,11.92
2018-11-11T10:55:23.337Z,11.91
2018-11-11T10:56:31.032Z,11.92
2018-11-11T10:57:40.728Z,11.92
2018-11-11T10:58:46.082Z,11.96
2018-11-11T10:59:52.708Z,11.96
2018-11-11T11:01:02.524Z,11.96
2018-11-11T11:02:12.204Z,11.94
2018-11-11T11:03:24.900Z,11.96
2018-11-11T11:04:30.317Z,11.94
2018-11-11T11:05:38.720Z,11.92
2018-11-11T11:06:48.625Z,11.94
2018-11-11T11:07:54.180Z,11.96
2018-11-11T11:09:05.600Z,11.92
2018-11-11T11:10:11.652Z,11.93
2018-11-11T11:11:18.819Z,11.92
2018-11-11T11:12:24.133Z,11.91
2018-11-11T11:13:29.739Z,11.91
2018-11-11T11:14:34.226Z,11.90
2018-11-11T11:15:40.903Z,11.90
2018-11-11T11:16:46.418Z,11.89
2018-11-11T11:17:51.420Z,11.88
2018-11-11T11:18:57.579Z,11.89
2018-11-11T11:20:03.557Z,11.90
2018-11-11T11:21:10.756Z,11.91
2018-11-11T11:22:16.213Z,11.93
2018-11-11T11:23:22.081Z,11.92
2018-11-11T11:25:42.199Z,11.93
2018-11-11T11:26:49.704Z,11.93
2018-11-11T11:27:54.620Z,11.93
2018-11-11T11:29:05.575Z,11.94
2018-11-11T11:30:11.982Z,11.96
2018-11-11T11:31:18.886Z,11.94
2018-11-11T11:32:24.474Z,11.93
2018-11-11T11:45:18.484Z,12.02
2018-11-11T11:46:23.735Z,12.02
2018-11-11T11:47:30.595Z,12.01
2018-11-11T11:48:39.088Z,12.01
2018-11-11T11:51:08.807Z,12.03
2018-11-11T11:52:15.872Z,12.03
2018-11-11T11:53:21.292Z,12.06
2018-11-11T11:54:26.789Z,12.07
2018-11-11T11:55:33.840Z,12.09
2018-11-11T11:56:43.172Z,12.11
2018-11-11T11:57:56.250Z,12.12
2018-11-11T11:59:03.674Z,12.12
2018-11-11T12:00:09.923Z,12.11
2018-11-11T12:01:15.836Z,12.13
2018-11-11T12:02:22.381Z,12.12
2018-11-11T12:03:26.991Z,12.10
2018-11-11T12:04:32.641Z,12.13
2018-11-11T12:05:37.669Z,12.12
2018-11-11T12:06:43.582Z,12.12
2018-11-11T12:07:48.419Z,12.11
2018-11-11T12:10:29.607Z,12.11
2018-11-11T12:11:36.480Z,12.12
2018-11-11T12:12:42.257Z,12.13
2018-11-11T12:13:48.208Z,12.14
2018-11-11T12:14:55.922Z,12.15
2018-11-11T12:16:01.316Z,12.14
2018-11-11T12:18:16.270Z,12.16
2018-11-11T12:19:21.322Z,12.16
2018-11-11T12:20:28.729Z,12.17
2018-11-11T12:21:35.839Z,12.18
2018-11-11T12:22:40.742Z,12.23
2018-11-11T12:23:48.489Z,12.25
2018-11-11T12:24:54.970Z,12.25
2018-11-11T12:25:59.557Z,12.26
2018-11-11T12:27:10.997Z,12.26
2018-11-11T12:28:16.727Z,12.27
2018-11-11T12:29:22.152Z,12.28
2018-11-11T12:30:27.680Z,12.26
2018-11-11T12:31:34.638Z,12.29
2018-11-11T12:32:42.376Z,12.33
2018-11-11T12:33:47.489Z,12.33
2018-11-11T12:34:53.871Z,12.33
2018-11-11T12:36:03.860Z,12.36
2018-11-11T12:37:10.195Z,12.38
2018-11-11T12:38:18.064Z,12.39
2018-11-11T12:39:24.295Z,12.42
2018-11-11T12:40:30.285Z,12.47
2018-11-11T12:41:36.483Z,12.57
2018-11-11T12:42:43.711Z,12.58
2018-11-11T12:43:48.699Z,12.63
2018-11-11T12:44:55.875Z,12.67
2018-11-11T12:46:00.438Z,12.66
2018-11-11T12:47:10.533Z,12.64
2018-11-11T12:48:15.266Z,12.63
2018-11-11T12:49:20.313Z,12.61
2018-11-11T12:50:27.495Z,12.60
2018-11-11T12:51:33.580Z,12.60
2018-11-11T12:52:39.991Z,12.57
2018-11-11T12:53:49.205Z,12.56
2018-11-11T12:54:54.121Z,12.53
2018-11-11T12:55:58.791Z,12.52
2018-11-11T12:57:03.928Z,12.49
2018-11-11T12:58:10.379Z,12.48
2018-11-11T12:59:16.121Z,12.50
2018-11-11T13:00:22.489Z,12.51
2018-11-11T13:01:30.468Z,12.49
2018-11-11T13:02:36.617Z,12.48
2018-11-11T13:03:41.582Z,12.48
2018-11-11T13:04:46.880Z,12.50
2018-11-11T13:05:53.338Z,12.49
2018-11-11T13:06:59.720Z,12.52
2018-11-11T13:08:05.215Z,12.51
2018-11-11T13:09:11.399Z,12.52
2018-11-11T13:11:28.517Z,12.52
2018-11-11T13:12:36.542Z,12.53
2018-11-11T13:13:43.762Z,12.54
2018-11-11T13:14:50.298Z,12.52
2018-11-11T13:15:55.769Z,12.51
2018-11-11T13:17:02.743Z,12.53
2018-11-11T13:18:11.282Z,12.52
2018-11-11T13:19:17.398Z,12.52
2018-11-11T13:20:24.494Z,12.52
2018-11-11T13:21:29.428Z,12.51
2018-11-11T13:22:37.242Z,12.52
2018-11-11T13:23:47.425Z,12.52
2018-11-11T13:24:53.172Z,12.55
2018-11-11T13:26:02.432Z,12.53
2018-11-11T13:27:09.506Z,12.53
2018-11-11T13:28:18.455Z,12.53
2018-11-11T13:29:23.298Z,12.55
2018-11-11T13:30:28.876Z,12.53
2018-11-11T13:31:37.347Z,12.55
2018-11-11T13:32:47.691Z,12.55
2018-11-11T13:33:52.572Z,12.53
2018-11-11T13:35:00.158Z,12.51
2018-11-11T13:36:07.739Z,12.49
2018-11-11T13:37:15.332Z,12.50
2018-11-11T13:38:24.028Z,12.51
2018-11-11T13:39:30.264Z,12.49
2018-11-11T13:40:37.365Z,12.49
2018-11-11T13:41:49.426Z,12.49
2018-11-11T13:42:56.407Z,12.47
2018-11-11T13:44:01.837Z,12.44
2018-11-11T13:45:08.689Z,12.43
2018-11-11T13:46:15.476Z,12.41
2018-11-11T13:47:20.523Z,12.37
2018-11-11T13:48:26.076Z,12.32
2018-11-11T13:49:33.192Z,12.30
2018-11-11T13:50:45.866Z,12.28
2018-11-11T13:51:51.759Z,12.25
2018-11-11T13:52:57.457Z,12.22
2018-11-11T13:54:04.326Z,12.24
2018-11-11T13:55:10.169Z,12.22
2018-11-11T13:56:15.761Z,12.15
2018-11-11T13:57:23.321Z,12.07
2018-11-11T13:58:29.435Z,12.07
2018-11-11T13:59:36.059Z,12.07
2018-11-11T14:00:43.174Z,12.02
2018-11-11T14:01:50.647Z,12.03
2018-11-11T14:02:55.732Z,12.05
2018-11-11T14:04:01.856Z,12.03
2018-11-11T14:05:08.770Z,12.01
2018-11-11T14:06:15.069Z,11.97
2018-11-11T14:07:19.813Z,11.97
2018-11-11T14:08:26.615Z,11.99
2018-11-11T14:09:33.410Z,12.01
2018-11-11T14:10:38.933Z,12.01
2018-11-11T14:11:45.680Z,11.99
2018-11-11T14:12:54.823Z,11.96
2018-11-11T14:14:01.278Z,11.91
2018-11-11T14:15:09.222Z,11.88
2018-11-11T14:16:14.484Z,11.88
2018-11-11T14:17:21.802Z,11.85
2018-11-11T14:18:27.766Z,11.86
2018-11-11T14:22:47.761Z,11.81
2018-11-11T14:23:52.821Z,11.76
2018-11-11T14:24:58.816Z,11.74
2018-11-11T14:26:05.970Z,11.74
2018-11-11T14:27:13.736Z,11.74
2018-11-11T14:28:20.160Z,11.70
2018-11-11T14:29:29.164Z,11.69
2018-11-11T14:30:35.881Z,11.67
2018-11-11T14:31:42.070Z,11.66
2018-11-11T14:32:49.480Z,11.59
2018-11-11T14:33:54.613Z,11.53
2018-11-11T14:35:00.863Z,11.52
2018-11-11T14:36:06.328Z,11.53
2018-11-11T14:37:12.733Z,11.50
2018-11-11T14:38:19.031Z,11.53
2018-11-11T14:39:24.166Z,11.50
2018-11-11T14:40:30.537Z,11.52
2018-11-11T14:41:35.064Z,11.50
2018-11-11T14:42:42.913Z,11.48
2018-11-11T14:43:49.597Z,11.45
2018-11-11T14:44:54.621Z,11.46
2018-11-11T14:46:02.678Z,11.43
2018-11-11T14:47:13.860Z,11.41
2018-11-11T14:48:18.747Z,11.39
2018-11-11T14:49:25.511Z,11.36
2018-11-11T14:50:31.363Z,11.37
2018-11-11T14:51:36.717Z,11.35
2018-11-11T14:52:43.441Z,11.35
2018-11-11T14:53:49.201Z,11.34
2018-11-11T14:54:54.772Z,11.32
2018-11-11T14:56:00.013Z,11.33
2018-11-11T14:57:06.067Z,11.32
2018-11-11T14:58:14.823Z,11.25
2018-11-11T14:59:27.655Z,11.25
2018-11-11T15:00:34.225Z,11.24
2018-11-11T15:01:39.904Z,11.22
2018-11-11T15:02:55.261Z,11.22
2018-11-11T15:04:01.446Z,11.24
2018-11-11T15:05:09.249Z,11.22
2018-11-11T15:06:17.851Z,11.22
2018-11-11T15:07:25.408Z,11.21
2018-11-11T15:08:30.574Z,11.20
2018-11-11T15:09:37.237Z,11.16
2018-11-11T15:10:42.653Z,11.17
2018-11-11T15:11:48.914Z,11.19
2018-11-11T15:12:54.405Z,11.18
2018-11-11T15:14:01.132Z,11.18
2018-11-11T15:15:06.869Z,11.18
2018-11-11T15:16:12.210Z,11.16
2018-11-11T15:17:17.630Z,11.15
2018-11-11T15:18:23.606Z,11.16
2018-11-11T15:19:29.882Z,11.16
2018-11-11T15:21:51.778Z,11.15
2018-11-11T15:22:58.453Z,11.15
2018-11-11T15:24:10.415Z,11.14
2018-11-11T15:25:16.588Z,11.13
2018-11-11T15:26:27.240Z,11.12
2018-11-11T15:27:36.185Z,11.10
2018-11-11T15:28:40.779Z,11.07
2018-11-11T15:29:52.309Z,11.05